NCAR-RAP Real-Time Weather Data

Output produced by METARs form (23 February 2020  01:51 UTC)
found at http://weather.rap.ucar.edu/surface/
 
KNYC 230051Z AUTO 24007KT 10SM CLR 08/M15 A3022 RMK AO2 SLP224 T00831150 $
KNYC 222351Z AUTO VRB05KT 10SM CLR 09/M16 A3020 RMK AO2 SLP220 T00891156 10100 20067 53012 $
KNYC 222251Z AUTO VRB06KT 10SM CLR 09/M15 A3018 RMK AO2 SLP211 T00891150 $
KNYC 222151Z AUTO 23007G17KT 10SM CLR 09/M15 A3017 RMK AO2 SLP207 T00941150 $
KNYC 222051Z AUTO 26008G17KT 230V310 10SM CLR 10/M14 A3017 RMK AO2 SLP208 T01001144 56018 $
KNYC 221951Z AUTO VRB04KT 10SM CLR 09/M14 A3018 RMK AO2 SLP212 T00891144 $
KNYC 221851Z AUTO 10SM CLR 09/M14 A3019 RMK AO2 SLP216 T00891139 $
KNYC 221751Z AUTO VRB05KT 10SM CLR 07/M14 A3022 RMK AO2 SLP226 T00671144 10072 21011 58026 $
KNYC 221651Z AUTO VRB05KT 10SM CLR 06/M14 A3026 RMK AO2 SLP239 T00561139 $
KNYC 221551Z AUTO 26004KT 10SM CLR 04/M14 A3028 RMK AO2 SLP248 T00391139 $
KNYC 221451Z AUTO 27006KT 10SM CLR 02/M13 A3030 RMK AO2 SLP253 T00221133 50002 $
KNYC 221351Z AUTO 10SM CLR 01/M13 A3031 RMK AO2 SLP257 T00061128 $
KNYC 221251Z AUTO VRB03KT 10SM CLR M01/M13 A3031 RMK AO2 SLP255 T10061128 $
KNYC 221151Z AUTO VRB04KT 10SM CLR M01/M13 A3029 RMK AO2 SLP251 T10111133 10000 21011 51005 $
KNYC 221051Z AUTO 26006KT 10SM CLR M01/M13 A3029 RMK AO2 SLP251 T10111133 $
KNYC 220951Z AUTO VRB05KT 10SM CLR M01/M13 A3028 RMK AO2 SLP248 T10111133 $
KNYC 220851Z AUTO 26007KT 210V290 10SM CLR 00/M14 A3028 RMK AO2 SLP246 T00001139 58019 $
KNYC 220751Z AUTO 24007KT 200V270 10SM CLR M01/M13 A3030 RMK AO2 SLP252 T10061133 $
KNYC 220651Z AUTO 25007KT 210V300 10SM CLR 00/M14 A3032 RMK AO2 SLP261 T00001144 $
KNYC 220551Z AUTO 25007G14KT 10SM CLR 00/M14 A3034 RMK AO2 SLP266 T00001144 10011 20000 58018 $
KNYC 220451Z AUTO 23005KT 10SM CLR 01/M16 A3035 RMK AO2 SLP271 T00061156 400171067 $
KNYC 220351Z AUTO VRB05KT 10SM CLR 00/M14 A3037 RMK AO2 SLP278 T00001144 $
KNYC 220251Z AUTO VRB06KT 10SM CLR 01/M15 A3039 RMK AO2 SLP283 T00061150 58010 $
KNYC 220151Z AUTO 10SM CLR 01/M15 A3041 RMK AO2 SLP290 T00061150 $
KNYC 220051Z AUTO 26008KT 10SM CLR 01/M16 A3041 RMK AO2 SLP291 T00061156 $
KNYC 212351Z AUTO 25006KT 10SM CLR 01/M17 A3042 RMK AO2 SLP293 T00111167 10017 21006 56005 $
KNYC 212251Z AUTO VRB03KT 10SM CLR 01/M17 A3042 RMK AO2 SLP294 T00061172 $
KNYC 212151Z AUTO 27004KT 10SM CLR 02/M18 A3042 RMK AO2 SLP295 T00171178 $
KNYC 212051Z AUTO VRB03KT 10SM CLR 01/M20 A3043 RMK AO2 SLP299 T00111200 56017 $
KNYC 211951Z AUTO VRB03KT 10SM CLR 01/M19 A3044 RMK AO2 SLP302 T00111194 $
KNYC 211851Z AUTO VRB04KT 10SM CLR 00/M19 A3047 RMK AO2 SLP309 T00001189 $
KNYC 211751Z AUTO VRB03KT 10SM CLR 00/M18 A3048 RMK AO2 SLP316 T00001178 10006 21067 58014 $
KNYC 211651Z AUTO 01007KT 10SM CLR M01/M17 A3051 RMK AO2 SLP324 T10061172 $
KNYC 211551Z AUTO VRB03KT 10SM CLR M03/M17 A3052 RMK AO2 SLP329 T10281167 $
KNYC 211451Z AUTO 02007KT 330V070 10SM CLR M03/M15 A3053 RMK AO2 SLP330 T10331150 51013 $
KNYC 211351Z AUTO VRB04KT 10SM CLR M05/M14 A3052 RMK AO2 SLP327 T10501139 $
KNYC 211251Z AUTO 00000KT 10SM CLR M06/M14 A3051 RMK AO2 SLP324 T10611139 $
KNYC 211151Z AUTO VRB04KT 10SM CLR M07/M14 A3049 RMK AO2 SLP317 T10671139 11039 21067 53010 $
KNYC 211051Z AUTO 01007KT 350V050 10SM CLR M06/M14 A3047 RMK AO2 SLP312 T10611139 $
KNYC 210951Z AUTO 10SM CLR M06/M14 A3046 RMK AO2 SLP308 T10561144 $
KNYC 210851Z AUTO VRB04KT 10SM CLR M06/M15 A3046 RMK AO2 SLP307 T10561150 58003 $
KNYC 210751Z AUTO VRB06KT 10SM CLR M05/M16 A3046 RMK AO2 SLP309 T10501156 $
KNYC 210651Z AUTO 35007KT 320V030 10SM CLR M04/M16 A3047 RMK AO2 SLP309 T10441156 $
KNYC 210551Z AUTO 01005G18KT 10SM CLR M04/M16 A3047 RMK AO2 SLP309 T10391156 10006 21039 51002 $
KNYC 210451Z AUTO 10SM CLR M03/M15 A3046 RMK AO2 SLP308 T10331150 400171033
KNYC 210351Z AUTO 00000KT 10SM CLR M03/M14 A3047 RMK AO2 SLP310 T10281139
KNYC 210251Z AUTO 10SM CLR M01/M14 A3046 RMK AO2 SLP308 T10111139 53010